.
WxDataArchive / Data Records for 2008-12-10
2008-12-09 December 2008 2008-12-11

Data Records for Wednesday, 10 December 2008

Time	Temp	Chill	HIndex	Humid	Dewpt	 Wind 	HiWind	WindDir	Rain 	Barom 
-----	----	-----	------	-----	-----	------	------	-------	-----	----- 
00:00	33.5	33.5	33.5	95	32.2	1	4	338	0.00	29.840 
00:05	33.4	33.4	33.4	95	32.1	1	4	0	0.00	29.839 
00:10	33.4	33.4	33.4	95	32.1	1	4	270	0.00	29.844 
00:15	33.2	33.2	33.2	95	31.9	2	5	338	0.00	29.854 
00:20	33.1	33.1	33.1	95	31.8	1	4	0	0.00	29.853 
00:25	32.9	32.9	32.9	95	31.6	1	3	315	0.00	29.852 
00:30	32.9	32.9	32.9	95	31.6	1	4	22	0.00	29.854 
00:35	32.8	32.8	32.8	94	31.3	1	4	0	0.00	29.857 
00:40	32.7	32.7	32.7	94	31.2	1	5	338	0.00	29.861 
00:45	32.7	32.7	32.7	94	31.2	1	5	270	0.00	29.858 
00:50	32.5	32.5	32.5	94	31.0	2	6	0	0.00	29.861 
00:55	32.4	32.4	32.4	94	30.9	1	6	0	0.00	29.860 
01:00	32.2	32.2	32.2	94	30.7	1	4	315	0.00	29.862 
01:05	32.2	32.2	32.2	94	30.7	1	3	292	0.00	29.867 
01:10	32.2	32.2	32.2	94	30.7	1	5	0	0.00	29.870 
01:15	32.1	32.1	32.1	94	30.6	2	6	338	0.00	29.874 
01:20	32.1	32.1	32.1	94	30.6	1	4	338	0.00	29.869 
01:25	32.1	32.1	32.1	93	30.3	1	6	22	0.00	29.869 
01:30	31.9	31.9	31.9	93	30.1	1	6	338	0.00	29.865 
01:35	31.9	31.9	31.9	93	30.1	1	5	315	0.00	29.866 
01:40	31.8	31.8	31.8	93	30.0	1	3	0	0.00	29.871 
01:45	31.8	31.8	31.8	93	30.0	1	5	0	0.00	29.875 
01:50	31.6	31.6	31.6	93	29.8	1	7	292	0.00	29.881 
01:55	31.6	31.6	31.6	93	29.8	0	3	292	0.00	29.883 
02:00	31.8	31.8	31.8	93	30.0	0	2	0	0.00	29.884 
02:05	31.6	31.6	31.6	93	29.8	1	7	0	0.00	29.888 
02:10	31.6	31.6	31.6	92	29.5	1	4	338	0.00	29.895 
02:15	31.6	31.6	31.6	92	29.5	1	4	338	0.00	29.900 
02:20	31.6	31.6	31.6	92	29.5	1	4	338	0.00	29.902 
02:25	31.6	31.6	31.6	92	29.5	0	2	0	0.00	29.905 
02:30	31.6	31.6	31.6	92	29.5	1	2	338	0.00	29.911 
02:35	31.6	31.6	31.6	92	29.5	1	3	292	0.00	29.913 
02:40	31.6	31.6	31.6	91	29.3	1	4	315	0.00	29.914 
02:45	31.5	31.5	31.5	91	29.2	1	5	0	0.00	29.913 
02:50	31.5	31.5	31.5	91	29.2	1	3	0	0.00	29.916 
02:55	31.5	31.5	31.5	91	29.2	1	4	0	0.00	29.912 
03:00	31.5	31.5	31.5	90	28.9	2	4	338	0.00	29.926 
03:05	31.5	31.5	31.5	90	28.9	0	2	22	0.00	29.930 
03:10	31.5	31.5	31.5	90	28.9	0	2	338	0.00	29.939 
03:15	31.3	31.3	31.3	90	28.7	1	4	338	0.00	29.942 
03:20	31.3	31.3	31.3	89	28.4	1	3	315	0.00	29.944 
03:25	31.3	31.3	31.3	89	28.4	1	3	270	0.00	29.945 
03:30	31.3	31.3	31.3	89	28.4	0	3	0	0.00	29.946 
03:35	31.2	31.2	31.2	89	28.3	1	4	338	0.00	29.945 
03:40	31.2	31.2	31.2	88	28.1	1	3	315	0.00	29.949 
03:45	31.2	31.2	31.2	88	28.1	0	2	338	0.00	29.949 
03:50	31.2	31.2	31.2	88	28.1	0	4	315	0.00	29.951 
03:55	31.2	31.2	31.2	88	28.1	0	3	0	0.00	29.953 
04:00	31.0	31.0	31.0	88	27.9	0	3	0	0.00	29.952 
04:05	31.0	31.0	31.0	88	27.9	0	3	0	0.00	29.950 
04:10	31.0	31.0	31.0	88	27.9	1	3	315	0.00	29.948 
04:15	31.0	31.0	31.0	88	27.9	1	4	315	0.00	29.949 
04:20	30.9	30.9	30.9	88	27.8	1	6	22	0.00	29.958 
04:25	30.9	30.9	30.9	88	27.8	0	3	292	0.00	29.962 
04:30	30.9	30.9	30.9	88	27.8	1	3	22	0.00	29.962 
04:35	30.7	30.7	30.7	88	27.6	0	3	45	0.00	29.964 
04:40	30.7	30.7	30.7	87	27.3	1	5	270	0.00	29.968 
04:45	30.7	30.7	30.7	87	27.3	1	4	0	0.00	29.971 
04:50	30.7	30.7	30.7	87	27.3	1	4	22	0.00	29.977 
04:55	30.7	30.7	30.7	87	27.3	1	3	45	0.00	29.981 
05:00	30.7	30.7	30.7	87	27.3	0	3	45	0.00	29.982 
05:05	30.7	30.7	30.7	87	27.3	0	4	45	0.00	29.986 
05:10	30.6	30.6	30.6	87	27.2	1	4	270	0.00	29.987 
05:15	30.6	30.6	30.6	87	27.2	1	3	0	0.00	29.993 
05:20	30.6	30.6	30.6	87	27.2	1	3	22	0.00	29.994 
05:25	30.4	30.4	30.4	87	27.0	0	3	0	0.00	29.991 
05:30	30.4	30.4	30.4	87	27.0	1	5	22	0.00	29.990 
05:35	30.3	30.3	30.3	87	26.9	1	5	22	0.00	29.995 
05:40	30.3	30.3	30.3	87	26.9	2	6	22	0.00	30.004 
05:45	30.1	30.1	30.1	86	26.4	1	4	45	0.00	30.009 
05:50	30.1	30.1	30.1	86	26.4	1	3	22	0.00	30.012 
05:55	30.1	30.1	30.1	86	26.4	1	5	22	0.00	30.012 
06:00	30.1	30.1	30.1	86	26.4	1	3	0	0.00	30.018 
06:05	30.0	30.0	30.0	86	26.3	0	2	0	0.00	30.019 
06:10	30.0	30.0	30.0	86	26.3	0	2	338	0.00	30.023 
06:15	30.0	30.0	30.0	86	26.3	0	4	338	0.00	30.028 
06:20	30.0	30.0	30.0	86	26.3	0	2	292	0.00	30.027 
06:25	29.8	29.8	29.8	86	26.1	0	2	292	0.00	30.032 
06:30	29.8	29.8	29.8	86	26.1	0	3	22	0.00	30.027 
06:35	29.7	29.7	29.7	86	26.0	1	6	22	0.00	30.030 
06:40	29.5	29.5	29.5	85	25.6	1	5	22	0.00	30.030 
06:45	29.5	29.5	29.5	85	25.6	1	4	22	0.00	30.038 
06:50	29.5	29.5	29.5	85	25.6	1	4	292	0.00	30.037 
06:55	29.4	29.4	29.4	85	25.5	1	5	315	0.00	30.041 
07:00	29.4	29.4	29.4	85	25.5	1	6	45	0.00	30.041 
07:05	29.3	29.3	29.3	85	25.4	1	2	22	0.00	30.044 
07:10	29.3	29.3	29.3	85	25.4	1	4	338	0.00	30.048 
07:15	29.3	29.3	29.3	85	25.4	1	3	0	0.00	30.056 
07:20	29.3	29.3	29.3	85	25.4	0	3	22	0.00	30.061 
07:25	29.1	29.1	29.1	85	25.2	0	2	22	0.00	30.067 
07:30	29.1	29.1	29.1	85	25.2	1	2	315	0.00	30.065 
07:35	29.1	29.1	29.1	84	24.9	1	3	315	0.00	30.069 
07:40	29.1	29.1	29.1	84	24.9	0	3	338	0.00	30.069 
07:45	29.1	29.1	29.1	85	25.2	1	5	338	0.00	30.072 
07:50	29.1	29.1	29.1	85	25.2	1	3	0	0.00	30.067 
07:55	29.0	29.0	29.0	84	24.8	1	4	292	0.00	30.060 
08:00	29.0	29.0	29.0	84	24.8	1	5	22	0.00	30.074 
08:05	28.8	28.8	28.8	84	24.6	2	6	22	0.00	30.081 
08:10	28.8	28.8	28.8	83	24.3	1	5	22	0.00	30.090 
08:15	28.7	28.7	28.7	83	24.2	1	4	338	0.00	30.092 
08:20	28.7	28.7	28.7	83	24.2	1	4	0	0.00	30.097 
08:25	28.7	28.7	28.7	83	24.2	0	2	22	0.00	30.104 
08:30	28.7	28.7	28.7	83	24.2	0	3	22	0.00	30.102 
08:35	28.7	28.7	28.7	83	24.2	1	10	0	0.00	30.101 
08:40	28.5	28.5	28.5	82	23.7	1	5	22	0.00	30.090 
08:45	28.4	28.4	28.4	82	23.6	1	6	22	0.00	30.100 
08:50	28.4	28.4	28.4	82	23.6	1	4	0	0.00	30.107 
08:55	28.2	28.2	28.2	81	23.1	1	3	22	0.00	30.123 
09:00	28.1	28.1	28.1	81	23.0	1	7	338	0.00	30.124 
09:05	28.1	28.1	28.1	81	23.0	1	4	22	0.00	30.125 
09:10	28.1	28.1	28.1	81	23.0	1	3	338	0.00	30.126 
09:15	27.9	27.9	27.9	81	22.8	1	5	315	0.00	30.127 
09:20	27.8	27.8	27.8	81	22.7	1	5	315	0.00	30.131 
09:25	27.8	27.8	27.8	81	22.7	1	7	22	0.00	30.130 
09:30	27.8	27.8	27.8	81	22.7	1	3	22	0.00	30.139 
09:35	27.8	27.8	27.8	81	22.7	0	4	22	0.00	30.143 
09:40	27.8	27.8	27.8	81	22.7	1	7	22	0.00	30.143 
09:45	27.6	27.6	27.6	81	22.5	1	7	22	0.00	30.142 
09:50	27.6	27.6	27.6	81	22.5	1	3	22	0.00	30.144 
09:55	27.5	27.5	27.5	81	22.4	1	3	22	0.00	30.149 
10:00	27.3	27.3	27.3	81	22.3	1	3	338	0.00	30.149 
10:05	27.5	27.5	27.5	81	22.4	1	3	45	0.00	30.157 
10:10	27.6	27.6	27.6	81	22.5	1	4	135	0.00	30.162 
10:15	27.6	27.6	27.6	82	22.8	0	3	68	0.00	30.164 
10:20	27.6	27.6	27.6	82	22.8	0	3	45	0.00	30.162 
10:25	27.6	27.6	27.6	81	22.5	1	4	0	0.00	30.166 
10:30	27.6	27.6	27.6	81	22.5	1	2	0	0.00	30.164 
10:35	27.5	27.5	27.5	81	22.4	0	2	0	0.00	30.161 
10:40	27.3	27.3	27.3	81	22.3	1	10	22	0.00	30.150 
10:45	27.3	27.3	27.3	81	22.3	1	4	338	0.00	30.149 
10:50	27.3	27.3	27.3	81	22.3	1	7	338	0.00	30.145 
10:55	27.2	27.2	27.2	81	22.2	1	5	45	0.00	30.136 
11:00	27.2	27.2	27.2	81	22.2	1	5	0	0.00	30.142 
11:05	27.2	27.2	27.2	81	22.2	1	5	0	0.00	30.148 
11:10	27.2	27.2	27.2	82	22.4	1	5	0	0.00	30.141 
11:15	27.2	27.2	27.2	82	22.4	1	7	135	0.00	30.152 
11:20	27.3	27.3	27.3	81	22.3	2	6	112	0.00	30.153 
11:25	27.3	27.3	27.3	80	22.0	1	5	0	0.00	30.151 
11:30	27.5	27.5	27.5	81	22.4	0	2	0	0.00	30.146 
11:35	27.8	27.8	27.8	80	22.4	1	5	45	0.00	30.147 
11:40	27.9	27.9	27.9	80	22.5	1	5	68	0.00	30.141 
11:45	28.4	28.4	28.4	80	23.0	1	4	22	0.00	30.137 
11:50	28.7	28.7	28.7	79	23.0	1	4	90	0.00	30.135 
11:55	28.8	28.8	28.8	79	23.1	0	2	45	0.00	30.135 
12:00	28.8	28.8	28.8	78	22.8	1	3	0	0.00	30.136 
12:05	29.0	29.0	29.0	78	23.0	1	4	0	0.00	30.135 
12:10	28.8	28.8	28.8	77	22.5	1	6	338	0.00	30.134 
12:15	28.7	28.7	28.7	77	22.4	1	4	135	0.00	30.137 
12:20	28.7	28.7	28.7	77	22.4	0	2	90	0.00	30.136 
12:25	28.8	28.8	28.8	77	22.5	1	7	112	0.00	30.130 
12:30	29.0	29.0	29.0	77	22.7	1	4	68	0.00	30.131 
12:35	29.0	29.0	29.0	77	22.7	1	4	45	0.00	30.138 
12:40	29.1	29.1	29.1	77	22.8	1	3	135	0.00	30.131 
12:45	29.3	29.3	29.3	77	23.0	1	5	90	0.00	30.122 
12:50	29.3	29.3	29.3	76	22.7	2	6	112	0.00	30.117 
12:55	29.4	29.4	29.4	77	23.1	1	4	45	0.00	30.117 
13:00	29.4	29.4	29.4	77	23.1	1	3	45	0.00	30.116 
13:05	29.4	29.4	29.4	77	23.1	1	3	45	0.00	30.121 
13:10	29.4	29.4	29.4	77	23.1	1	3	112	0.00	30.124 
13:15	29.5	29.5	29.5	77	23.2	0	3	45	0.00	30.134 
13:20	29.7	29.7	29.7	77	23.4	0	2	112	0.00	30.135 
13:25	29.8	29.8	29.8	77	23.5	0	4	45	0.00	30.139 
13:30	30.0	30.0	30.0	77	23.7	0	2	112	0.00	30.149 
13:35	30.0	30.0	30.0	76	23.4	0	4	90	0.00	30.138 
13:40	30.1	30.1	30.1	75	23.2	0	2	45	0.00	30.143 
13:45	30.4	30.4	30.4	75	23.4	0	3	45	0.00	30.149 
13:50	30.6	30.6	30.6	74	23.3	1	4	22	0.00	30.148 
13:55	30.7	30.7	30.7	74	23.4	1	4	0	0.00	30.141 
14:00	31.0	31.0	31.0	74	23.7	1	4	135	0.00	30.138 
14:05	31.3	31.3	31.3	74	24.0	1	4	0	0.00	30.141 
14:10	31.2	31.2	31.2	72	23.2	1	3	68	0.00	30.137 
14:15	31.2	31.2	31.2	73	23.6	1	6	90	0.00	30.135 
14:20	31.0	31.0	31.0	73	23.4	0	3	112	0.00	30.135 
14:25	30.9	30.9	30.9	74	23.6	1	4	22	0.00	30.137 
14:30	30.7	30.7	30.7	73	23.1	0	3	45	0.00	30.141 
14:35	30.4	30.4	30.4	74	23.1	1	2	0	0.00	30.142 
14:40	30.4	30.4	30.4	75	23.4	0	3	22	0.00	30.139 
14:45	30.4	30.4	30.4	75	23.4	0	2	22	0.00	30.140 
14:50	30.3	30.3	30.3	75	23.3	0	2	22	0.00	30.141 
14:55	30.3	30.3	30.3	74	23.0	1	3	22	0.00	30.139 
15:00	30.3	30.3	30.3	74	23.0	0	2	90	0.00	30.139 
15:05	30.4	30.4	30.4	74	23.1	0	3	338	0.00	30.148 
15:10	30.4	30.4	30.4	74	23.1	0	2	22	0.00	30.150 
15:15	30.4	30.4	30.4	75	23.4	0	2	90	0.00	30.153 
15:20	30.4	30.4	30.4	75	23.4	0	2	0	0.00	30.156 
15:25	30.4	30.4	30.4	75	23.4	0	1	0	0.00	30.160 
15:30	30.4	30.4	30.4	73	22.8	0	1	0	0.00	30.156 
15:35	30.3	30.3	30.3	70	21.7	0	2	0	0.00	30.163 
15:40	30.1	30.1	30.1	69	21.2	0	3	292	0.00	30.165 
15:45	30.1	30.1	30.1	70	21.5	0	2	292	0.00	30.168 
15:50	30.0	30.0	30.0	69	21.1	0	3	22	0.00	30.174 
15:55	30.0	30.0	30.0	70	21.4	0	2	45	0.00	30.181 
16:00	30.0	30.0	30.0	69	21.1	0	1	45	0.00	30.184 
16:05	30.0	30.0	30.0	70	21.4	0	3	45	0.00	30.184 
16:10	30.0	30.0	30.0	70	21.4	0	1	338	0.00	30.179 
16:15	30.0	30.0	30.0	71	21.8	0	3	338	0.00	30.181 
16:20	30.0	30.0	30.0	72	22.1	0	2	135	0.00	30.184 
16:25	30.0	30.0	30.0	72	22.1	0	2	135	0.00	30.183 
16:30	30.0	30.0	30.0	72	22.1	0	2	135	0.00	30.184 
16:35	29.8	29.8	29.8	73	22.2	0	2	22	0.00	30.184 
16:40	29.8	29.8	29.8	73	22.2	0	2	22	0.00	30.182 
16:45	29.7	29.7	29.7	74	22.4	0	0	---	0.00	30.178 
16:50	29.5	29.5	29.5	74	22.3	0	1	22	0.00	30.178 
16:55	29.4	29.4	29.4	74	22.2	0	2	22	0.00	30.181 
17:00	29.1	29.1	29.1	75	22.2	0	1	22	0.00	30.183 
17:05	29.0	29.0	29.0	76	22.4	0	1	22	0.00	30.180 
17:10	28.8	28.8	28.8	76	22.2	0	1	22	0.00	30.175 
17:15	28.8	28.8	28.8	76	22.2	0	1	22	0.00	30.172 
17:20	28.7	28.7	28.7	77	22.4	0	0	---	0.00	30.170 
17:25	28.7	28.7	28.7	77	22.4	0	0	---	0.00	30.171 
17:30	28.7	28.7	28.7	77	22.4	0	1	22	0.00	30.174 
17:35	28.7	28.7	28.7	77	22.4	0	0	---	0.00	30.172 
17:40	28.7	28.7	28.7	77	22.4	0	1	22	0.00	30.179 
17:45	28.7	28.7	28.7	77	22.4	0	1	22	0.00	30.171 
17:50	28.5	28.5	28.5	77	22.2	0	1	22	0.00	30.172 
17:55	28.5	28.5	28.5	76	21.9	0	2	68	0.00	30.175 
18:00	28.4	28.4	28.4	76	21.8	0	2	68	0.00	30.180 
18:05	28.2	28.2	28.2	76	21.6	0	1	68	0.00	30.182 
18:10	28.1	28.1	28.1	76	21.5	0	1	68	0.00	30.184 
18:15	27.9	27.9	27.9	76	21.3	0	0	---	0.00	30.184 
18:20	27.8	27.8	27.8	77	21.5	0	1	68	0.00	30.182 
18:25	27.6	27.6	27.6	77	21.4	0	1	68	0.00	30.183 
18:30	27.5	27.5	27.5	77	21.3	0	1	68	0.00	30.181 
18:35	27.3	27.3	27.3	77	21.1	0	1	68	0.00	30.181 
18:40	27.2	27.2	27.2	77	21.0	0	0	---	0.00	30.183 
18:45	27.2	27.2	27.2	77	21.0	0	0	---	0.00	30.179 
18:50	27.0	27.0	27.0	77	20.8	0	0	---	0.00	30.183 
18:55	26.9	26.9	26.9	77	20.7	0	0	---	0.00	30.184 
19:00	26.6	26.6	26.6	77	20.4	0	0	---	0.00	30.184 
19:05	26.4	26.4	26.4	77	20.2	0	0	---	0.00	30.187 
19:10	26.1	26.1	26.1	78	20.2	0	0	---	0.00	30.186 
19:15	26.0	26.0	26.0	78	20.1	0	0	---	0.00	30.187 
19:20	25.8	25.8	25.8	79	20.2	0	0	---	0.00	30.184 
19:25	25.8	25.8	25.8	79	20.2	0	1	68	0.00	30.178 
19:30	25.8	25.8	25.8	79	20.2	0	0	---	0.00	30.175 
19:35	25.7	25.7	25.7	79	20.1	0	0	---	0.00	30.174 
19:40	25.7	25.7	25.7	80	20.4	0	2	68	0.00	30.175 
19:45	25.7	25.7	25.7	79	20.1	0	1	68	0.00	30.176 
19:50	25.7	25.7	25.7	78	19.8	0	2	68	0.00	30.177 
19:55	25.6	25.6	25.6	77	19.4	0	1	68	0.00	30.176 
20:00	25.6	25.6	25.6	77	19.4	0	1	68	0.00	30.176 
20:05	25.4	25.4	25.4	77	19.2	0	2	68	0.00	30.178 
20:10	25.4	25.4	25.4	77	19.2	0	1	68	0.00	30.179 
20:15	25.3	25.3	25.3	77	19.1	0	0	---	0.00	30.177 
20:20	25.1	25.1	25.1	77	18.9	0	2	68	0.00	30.174 
20:25	25.0	25.0	25.0	78	19.1	0	2	68	0.00	30.167 
20:30	25.0	25.0	25.0	78	19.1	0	1	68	0.00	30.168 
20:35	24.8	24.8	24.8	78	18.9	0	1	68	0.00	30.163 
20:40	24.7	24.7	24.7	78	18.8	0	0	---	0.00	30.161 
20:45	24.5	24.5	24.5	78	18.6	0	2	68	0.00	30.162 
20:50	24.5	24.5	24.5	78	18.6	0	1	68	0.00	30.161 
20:55	24.4	24.4	24.4	78	18.5	0	1	68	0.00	30.164 
21:00	24.2	24.2	24.2	79	18.6	0	0	---	0.00	30.163 
21:05	24.1	24.1	24.1	79	18.5	0	0	---	0.00	30.168 
21:10	23.9	23.9	23.9	79	18.4	0	1	68	0.00	30.172 
21:15	23.8	23.8	23.8	79	18.3	0	1	68	0.00	30.172 
21:20	23.6	23.6	23.6	79	18.1	0	0	---	0.00	30.169 
21:25	23.5	23.5	23.5	80	18.3	0	0	---	0.00	30.165 
21:30	23.5	23.5	23.5	80	18.3	0	1	68	0.00	30.169 
21:35	23.3	23.3	23.3	80	18.1	0	0	---	0.00	30.172 
21:40	23.2	23.2	23.2	80	18.0	0	0	---	0.00	30.171 
21:45	23.0	23.0	23.0	80	17.8	0	0	---	0.00	30.170 
21:50	22.9	22.9	22.9	80	17.7	0	1	68	0.00	30.169 
21:55	22.7	22.7	22.7	80	17.5	0	0	---	0.00	30.163 
22:00	22.5	22.5	22.5	80	17.3	0	0	---	0.00	30.162 
22:05	22.5	22.5	22.5	81	17.6	0	1	68	0.00	30.162 
22:10	22.4	22.4	22.4	81	17.5	0	0	---	0.00	30.162 
22:15	22.4	22.4	22.4	81	17.5	0	0	---	0.00	30.163 
22:20	22.4	22.4	22.4	81	17.5	0	1	68	0.00	30.163 
22:25	22.2	22.2	22.2	81	17.3	0	1	68	0.00	30.160 
22:30	22.1	22.1	22.1	81	17.2	0	0	---	0.00	30.160 
22:35	22.1	22.1	22.1	81	17.2	0	0	---	0.00	30.164 
22:40	21.9	21.9	21.9	81	17.0	0	0	---	0.00	30.164 
22:45	21.8	21.8	21.8	82	17.2	0	1	68	0.00	30.161 
22:50	21.8	21.8	21.8	82	17.2	0	0	---	0.00	30.159 
22:55	21.8	21.8	21.8	82	17.2	0	1	68	0.00	30.158 
23:00	21.8	21.8	21.8	82	17.2	0	1	68	0.00	30.159 
23:05	21.8	21.8	21.8	82	17.2	0	0	---	0.00	30.160 
23:10	21.8	21.8	21.8	82	17.2	0	1	68	0.00	30.161 
23:15	21.9	21.9	21.9	82	17.3	0	0	---	0.00	30.162 
23:20	21.9	21.9	21.9	82	17.3	0	2	68	0.00	30.161 
23:25	22.2	22.2	22.2	82	17.6	0	1	68	0.00	30.157 
23:30	22.4	22.4	22.4	81	17.5	0	1	68	0.00	30.151 
23:35	22.5	22.5	22.5	81	17.6	0	1	68	0.00	30.150 
23:40	22.7	22.7	22.7	81	17.8	0	1	68	0.00	30.151 
23:45	22.9	22.9	22.9	81	18.0	0	0	---	0.00	30.151 
23:50	22.9	22.9	22.9	81	18.0	0	1	68	0.00	30.152 
23:55	23.0	23.0	23.0	81	18.1	0	1	68	0.00	30.158 

CoCoRaHS
IN-AL-39
A2 Web Hosting
Creative Commons License
GoDaddy
search engine by freefind advanced

loaded 2018-11-20 14:20:11 • last modified 2010-11-18 10:43:29
Privacy PolicyDisclaimer
• wx.awcolley.com is powered by PmWiki v.2002016 •
• all content (unless otherwise noted) © 2018 A W Colley